sensor_id;sensor_type;location;lat;lon;timestamp;P1;durP1;ratioP1;P2;durP2;ratioP2
33190;SDS011;19554;42.652;23.364;2023-02-21T00:00:59;19.95;;;8.13;;
33190;SDS011;19554;42.652;23.364;2023-02-21T00:03:43;15.88;;;7.38;;
33190;SDS011;19554;42.652;23.364;2023-02-21T00:06:27;15.82;;;7.65;;
33190;SDS011;19554;42.652;23.364;2023-02-21T00:09:11;16.77;;;6.93;;
33190;SDS011;19554;42.652;23.364;2023-02-21T00:11:55;16.48;;;8.95;;
33190;SDS011;19554;42.652;23.364;2023-02-21T00:14:39;19.10;;;9.38;;
33190;SDS011;19554;42.652;23.364;2023-02-21T00:17:23;15.68;;;7.53;;
33190;SDS011;19554;42.652;23.364;2023-02-21T00:20:07;16.60;;;8.02;;
33190;SDS011;19554;42.652;23.364;2023-02-21T00:22:51;13.55;;;7.47;;
33190;SDS011;19554;42.652;23.364;2023-02-21T00:25:35;13.07;;;7.22;;
33190;SDS011;19554;42.652;23.364;2023-02-21T00:28:19;14.88;;;6.97;;
33190;SDS011;19554;42.652;23.364;2023-02-21T00:31:03;12.02;;;6.63;;
33190;SDS011;19554;42.652;23.364;2023-02-21T00:33:47;11.20;;;6.57;;
33190;SDS011;19554;42.652;23.364;2023-02-21T00:36:31;10.98;;;6.53;;
33190;SDS011;19554;42.652;23.364;2023-02-21T00:39:15;10.55;;;5.78;;
33190;SDS011;19554;42.652;23.364;2023-02-21T00:41:59;12.65;;;7.10;;
33190;SDS011;19554;42.652;23.364;2023-02-21T00:44:43;11.60;;;5.72;;
33190;SDS011;19554;42.652;23.364;2023-02-21T00:47:27;12.48;;;5.65;;
33190;SDS011;19554;42.652;23.364;2023-02-21T00:50:12;9.88;;;5.40;;
33190;SDS011;19554;42.652;23.364;2023-02-21T00:52:56;7.90;;;5.10;;
33190;SDS011;19554;42.652;23.364;2023-02-21T00:55:40;12.27;;;5.70;;
33190;SDS011;19554;42.652;23.364;2023-02-21T00:58:24;10.05;;;4.80;;
33190;SDS011;19554;42.652;23.364;2023-02-21T01:01:08;12.80;;;6.80;;
33190;SDS011;19554;42.652;23.364;2023-02-21T01:03:52;15.57;;;6.53;;
33190;SDS011;19554;42.652;23.364;2023-02-21T01:06:36;10.25;;;6.15;;
33190;SDS011;19554;42.652;23.364;2023-02-21T01:09:20;9.63;;;5.07;;
33190;SDS011;19554;42.652;23.364;2023-02-21T01:15:25;7.80;;;5.07;;
33190;SDS011;19554;42.652;23.364;2023-02-21T01:18:09;9.90;;;5.30;;
33190;SDS011;19554;42.652;23.364;2023-02-21T01:20:53;10.38;;;5.93;;
33190;SDS011;19554;42.652;23.364;2023-02-21T01:23:37;7.70;;;4.95;;
33190;SDS011;19554;42.652;23.364;2023-02-21T01:26:21;12.00;;;5.55;;
33190;SDS011;19554;42.652;23.364;2023-02-21T01:29:05;8.98;;;5.75;;
33190;SDS011;19554;42.652;23.364;2023-02-21T01:31:49;10.13;;;5.38;;
33190;SDS011;19554;42.652;23.364;2023-02-21T01:34:33;9.68;;;5.50;;
33190;SDS011;19554;42.652;23.364;2023-02-21T01:37:17;14.77;;;5.82;;
33190;SDS011;19554;42.652;23.364;2023-02-21T01:40:01;13.00;;;5.68;;
33190;SDS011;19554;42.652;23.364;2023-02-21T01:42:45;8.70;;;5.00;;
33190;SDS011;19554;42.652;23.364;2023-02-21T01:48:19;13.88;;;6.07;;
33190;SDS011;19554;42.652;23.364;2023-02-21T01:51:05;10.95;;;5.25;;
33190;SDS011;19554;42.652;23.364;2023-02-21T01:53:52;9.70;;;4.22;;
33190;SDS011;19554;42.652;23.364;2023-02-21T01:56:37;8.52;;;4.75;;
33190;SDS011;19554;42.652;23.364;2023-02-21T01:59:22;9.27;;;4.65;;
33190;SDS011;19554;42.652;23.364;2023-02-21T02:05:02;8.35;;;5.10;;
33190;SDS011;19554;42.652;23.364;2023-02-21T02:07:47;8.75;;;4.18;;
33190;SDS011;19554;42.652;23.364;2023-02-21T02:10:31;7.03;;;3.90;;
33190;SDS011;19554;42.652;23.364;2023-02-21T02:18:45;8.23;;;4.03;;
33190;SDS011;19554;42.652;23.364;2023-02-21T02:40:33;8.93;;;4.40;;
33190;SDS011;19554;42.652;23.364;2023-02-21T02:43:24;8.55;;;4.50;;
33190;SDS011;19554;42.652;23.364;2023-02-21T02:46:02;10.57;;;4.90;;
33190;SDS011;19554;42.652;23.364;2023-02-21T02:51:04;7.18;;;4.30;;
33190;SDS011;19554;42.652;23.364;2023-02-21T02:53:33;7.35;;;4.22;;
33190;SDS011;19554;42.652;23.364;2023-02-21T02:56:04;10.15;;;4.75;;
33190;SDS011;19554;42.652;23.364;2023-02-21T02:58:32;6.68;;;4.15;;
33190;SDS011;19554;42.652;23.364;2023-02-21T03:09:08;12.18;;;6.20;;
33190;SDS011;19554;42.652;23.364;2023-02-21T03:11:42;17.15;;;8.10;;
33190;SDS011;19554;42.652;23.364;2023-02-21T03:14:29;19.42;;;8.85;;
33190;SDS011;19554;42.652;23.364;2023-02-21T03:17:03;15.45;;;7.47;;
33190;SDS011;19554;42.652;23.364;2023-02-21T03:19:34;11.40;;;6.53;;
33190;SDS011;19554;42.652;23.364;2023-02-21T03:22:10;15.75;;;6.88;;
33190;SDS011;19554;42.652;23.364;2023-02-21T03:24:39;14.70;;;6.53;;
33190;SDS011;19554;42.652;23.364;2023-02-21T03:27:08;9.70;;;4.70;;
33190;SDS011;19554;42.652;23.364;2023-02-21T03:29:35;15.48;;;5.22;;
33190;SDS011;19554;42.652;23.364;2023-02-21T03:32:09;8.65;;;3.92;;
33190;SDS011;19554;42.652;23.364;2023-02-21T03:34:40;9.90;;;3.70;;
33190;SDS011;19554;42.652;23.364;2023-02-21T03:37:08;14.20;;;5.55;;
33190;SDS011;19554;42.652;23.364;2023-02-21T03:39:41;18.08;;;7.07;;
33190;SDS011;19554;42.652;23.364;2023-02-21T03:42:07;13.00;;;6.90;;
33190;SDS011;19554;42.652;23.364;2023-02-21T03:44:32;9.18;;;4.63;;
33190;SDS011;19554;42.652;23.364;2023-02-21T03:46:57;10.48;;;4.93;;
33190;SDS011;19554;42.652;23.364;2023-02-21T03:49:23;10.85;;;4.47;;
33190;SDS011;19554;42.652;23.364;2023-02-21T03:51:48;11.57;;;5.15;;
33190;SDS011;19554;42.652;23.364;2023-02-21T03:54:13;7.82;;;4.70;;
33190;SDS011;19554;42.652;23.364;2023-02-21T03:56:39;7.75;;;4.57;;
33190;SDS011;19554;42.652;23.364;2023-02-21T03:59:04;10.75;;;5.10;;
33190;SDS011;19554;42.652;23.364;2023-02-21T04:01:29;8.90;;;4.85;;
33190;SDS011;19554;42.652;23.364;2023-02-21T04:03:55;8.50;;;4.25;;
33190;SDS011;19554;42.652;23.364;2023-02-21T04:06:20;9.27;;;4.80;;
33190;SDS011;19554;42.652;23.364;2023-02-21T04:08:45;7.70;;;3.95;;
33190;SDS011;19554;42.652;23.364;2023-02-21T04:11:11;9.00;;;4.30;;
33190;SDS011;19554;42.652;23.364;2023-02-21T04:13:36;8.00;;;4.40;;
33190;SDS011;19554;42.652;23.364;2023-02-21T04:16:02;6.90;;;3.63;;
33190;SDS011;19554;42.652;23.364;2023-02-21T04:18:28;6.07;;;3.53;;
33190;SDS011;19554;42.652;23.364;2023-02-21T04:20:53;7.50;;;3.75;;
33190;SDS011;19554;42.652;23.364;2023-02-21T04:23:19;6.18;;;3.83;;
33190;SDS011;19554;42.652;23.364;2023-02-21T04:25:46;6.18;;;4.00;;
33190;SDS011;19554;42.652;23.364;2023-02-21T04:28:11;7.35;;;3.85;;
33190;SDS011;19554;42.652;23.364;2023-02-21T04:30:37;8.35;;;4.03;;
33190;SDS011;19554;42.652;23.364;2023-02-21T04:33:03;10.00;;;4.32;;
33190;SDS011;19554;42.652;23.364;2023-02-21T04:35:28;8.93;;;4.50;;
33190;SDS011;19554;42.652;23.364;2023-02-21T04:37:54;8.55;;;4.25;;
33190;SDS011;19554;42.652;23.364;2023-02-21T04:40:19;10.65;;;4.03;;
33190;SDS011;19554;42.652;23.364;2023-02-21T04:42:45;12.45;;;6.22;;
33190;SDS011;19554;42.652;23.364;2023-02-21T04:45:10;14.52;;;5.97;;
33190;SDS011;19554;42.652;23.364;2023-02-21T04:47:36;8.35;;;4.65;;
33190;SDS011;19554;42.652;23.364;2023-02-21T04:50:01;10.00;;;4.93;;
33190;SDS011;19554;42.652;23.364;2023-02-21T04:52:27;10.90;;;5.30;;
33190;SDS011;19554;42.652;23.364;2023-02-21T04:54:53;20.08;;;7.60;;
33190;SDS011;19554;42.652;23.364;2023-02-21T04:57:18;18.13;;;7.53;;
33190;SDS011;19554;42.652;23.364;2023-02-21T04:59:43;29.85;;;9.63;;
33190;SDS011;19554;42.652;23.364;2023-02-21T05:02:09;24.38;;;10.30;;
33190;SDS011;19554;42.652;23.364;2023-02-21T05:04:35;10.60;;;5.00;;
33190;SDS011;19554;42.652;23.364;2023-02-21T05:07:01;18.70;;;7.88;;
33190;SDS011;19554;42.652;23.364;2023-02-21T05:09:27;15.20;;;6.97;;
33190;SDS011;19554;42.652;23.364;2023-02-21T05:11:54;27.00;;;11.50;;
33190;SDS011;19554;42.652;23.364;2023-02-21T05:14:19;20.15;;;9.60;;
33190;SDS011;19554;42.652;23.364;2023-02-21T05:16:44;17.50;;;7.25;;
33190;SDS011;19554;42.652;23.364;2023-02-21T05:19:10;18.88;;;7.18;;
33190;SDS011;19554;42.652;23.364;2023-02-21T05:21:36;14.15;;;7.75;;
33190;SDS011;19554;42.652;23.364;2023-02-21T05:24:03;13.25;;;6.43;;
33190;SDS011;19554;42.652;23.364;2023-02-21T05:26:33;8.93;;;5.07;;
33190;SDS011;19554;42.652;23.364;2023-02-21T05:29:00;7.60;;;4.15;;
33190;SDS011;19554;42.652;23.364;2023-02-21T05:31:25;14.48;;;5.65;;
33190;SDS011;19554;42.652;23.364;2023-02-21T05:33:51;13.43;;;5.20;;
33190;SDS011;19554;42.652;23.364;2023-02-21T05:36:16;10.02;;;4.88;;
33190;SDS011;19554;42.652;23.364;2023-02-21T05:38:49;7.38;;;3.97;;
33190;SDS011;19554;42.652;23.364;2023-02-21T05:41:16;13.80;;;4.38;;
33190;SDS011;19554;42.652;23.364;2023-02-21T05:43:43;8.38;;;4.07;;
33190;SDS011;19554;42.652;23.364;2023-02-21T05:46:20;19.50;;;7.88;;
33190;SDS011;19554;42.652;23.364;2023-02-21T05:48:46;7.90;;;4.28;;
33190;SDS011;19554;42.652;23.364;2023-02-21T05:51:12;11.13;;;4.40;;
33190;SDS011;19554;42.652;23.364;2023-02-21T05:53:38;9.68;;;5.80;;
33190;SDS011;19554;42.652;23.364;2023-02-21T05:56:03;13.70;;;4.78;;
33190;SDS011;19554;42.652;23.364;2023-02-21T05:58:29;10.07;;;4.45;;
33190;SDS011;19554;42.652;23.364;2023-02-21T06:00:54;10.35;;;5.25;;
33190;SDS011;19554;42.652;23.364;2023-02-21T06:03:20;7.78;;;4.47;;
33190;SDS011;19554;42.652;23.364;2023-02-21T06:05:45;8.63;;;4.30;;
33190;SDS011;19554;42.652;23.364;2023-02-21T06:08:10;12.82;;;4.25;;
33190;SDS011;19554;42.652;23.364;2023-02-21T06:10:36;8.88;;;4.05;;
33190;SDS011;19554;42.652;23.364;2023-02-21T06:13:01;9.57;;;5.45;;
33190;SDS011;19554;42.652;23.364;2023-02-21T06:15:26;12.35;;;5.32;;
33190;SDS011;19554;42.652;23.364;2023-02-21T06:17:52;7.78;;;5.05;;
33190;SDS011;19554;42.652;23.364;2023-02-21T06:20:17;12.00;;;5.88;;
33190;SDS011;19554;42.652;23.364;2023-02-21T06:22:43;25.63;;;12.13;;
33190;SDS011;19554;42.652;23.364;2023-02-21T06:25:09;22.95;;;9.10;;
33190;SDS011;19554;42.652;23.364;2023-02-21T06:27:34;15.80;;;6.38;;
33190;SDS011;19554;42.652;23.364;2023-02-21T06:30:00;14.98;;;5.93;;
33190;SDS011;19554;42.652;23.364;2023-02-21T06:32:27;11.40;;;4.90;;
33190;SDS011;19554;42.652;23.364;2023-02-21T06:34:52;13.23;;;5.75;;
33190;SDS011;19554;42.652;23.364;2023-02-21T06:37:17;17.00;;;6.10;;
33190;SDS011;19554;42.652;23.364;2023-02-21T06:39:43;12.80;;;5.15;;
33190;SDS011;19554;42.652;23.364;2023-02-21T06:42:12;13.65;;;6.20;;
33190;SDS011;19554;42.652;23.364;2023-02-21T06:44:38;14.35;;;5.85;;
33190;SDS011;19554;42.652;23.364;2023-02-21T06:47:04;14.02;;;5.63;;
33190;SDS011;19554;42.652;23.364;2023-02-21T06:49:29;15.43;;;6.00;;
33190;SDS011;19554;42.652;23.364;2023-02-21T06:51:55;17.73;;;6.38;;
33190;SDS011;19554;42.652;23.364;2023-02-21T06:54:20;18.13;;;6.30;;
33190;SDS011;19554;42.652;23.364;2023-02-21T06:56:46;14.32;;;5.40;;
33190;SDS011;19554;42.652;23.364;2023-02-21T06:59:11;12.35;;;5.32;;
33190;SDS011;19554;42.652;23.364;2023-02-21T07:01:36;11.80;;;5.57;;
33190;SDS011;19554;42.652;23.364;2023-02-21T07:04:02;15.85;;;5.45;;
33190;SDS011;19554;42.652;23.364;2023-02-21T07:06:27;11.55;;;5.55;;
33190;SDS011;19554;42.652;23.364;2023-02-21T07:08:53;17.48;;;5.95;;
33190;SDS011;19554;42.652;23.364;2023-02-21T07:11:18;15.40;;;5.63;;
33190;SDS011;19554;42.652;23.364;2023-02-21T07:13:50;13.63;;;5.40;;
33190;SDS011;19554;42.652;23.364;2023-02-21T07:16:17;27.85;;;6.22;;
33190;SDS011;19554;42.652;23.364;2023-02-21T07:18:45;18.17;;;5.72;;
33190;SDS011;19554;42.652;23.364;2023-02-21T07:21:11;18.90;;;6.20;;
33190;SDS011;19554;42.652;23.364;2023-02-21T07:23:38;14.68;;;5.88;;
33190;SDS011;19554;42.652;23.364;2023-02-21T07:26:04;22.08;;;7.05;;
33190;SDS011;19554;42.652;23.364;2023-02-21T07:28:29;12.95;;;6.68;;
33190;SDS011;19554;42.652;23.364;2023-02-21T07:30:55;16.70;;;6.13;;
33190;SDS011;19554;42.652;23.364;2023-02-21T07:33:20;21.52;;;6.90;;
33190;SDS011;19554;42.652;23.364;2023-02-21T07:35:45;16.33;;;6.47;;
33190;SDS011;19554;42.652;23.364;2023-02-21T07:38:21;20.13;;;7.00;;
33190;SDS011;19554;42.652;23.364;2023-02-21T07:40:48;24.88;;;6.72;;
33190;SDS011;19554;42.652;23.364;2023-02-21T07:43:14;25.65;;;7.57;;
33190;SDS011;19554;42.652;23.364;2023-02-21T07:45:40;18.75;;;6.30;;
33190;SDS011;19554;42.652;23.364;2023-02-21T07:48:05;20.42;;;6.38;;
33190;SDS011;19554;42.652;23.364;2023-02-21T07:50:30;14.20;;;7.05;;
33190;SDS011;19554;42.652;23.364;2023-02-21T07:52:56;15.40;;;7.15;;
33190;SDS011;19554;42.652;23.364;2023-02-21T07:55:23;21.60;;;7.15;;
33190;SDS011;19554;42.652;23.364;2023-02-21T07:57:49;14.55;;;6.40;;
33190;SDS011;19554;42.652;23.364;2023-02-21T08:00:14;23.40;;;7.90;;
33190;SDS011;19554;42.652;23.364;2023-02-21T08:02:40;17.85;;;7.22;;
33190;SDS011;19554;42.652;23.364;2023-02-21T08:05:06;19.25;;;7.00;;
33190;SDS011;19554;42.652;23.364;2023-02-21T08:07:32;29.40;;;9.23;;
33190;SDS011;19554;42.652;23.364;2023-02-21T08:09:57;14.90;;;7.38;;
33190;SDS011;19554;42.652;23.364;2023-02-21T08:12:22;21.67;;;8.27;;
33190;SDS011;19554;42.652;23.364;2023-02-21T08:14:48;21.45;;;8.73;;
33190;SDS011;19554;42.652;23.364;2023-02-21T08:17:16;28.15;;;9.45;;
33190;SDS011;19554;42.652;23.364;2023-02-21T08:19:41;19.35;;;8.57;;
33190;SDS011;19554;42.652;23.364;2023-02-21T08:22:07;29.40;;;8.48;;
33190;SDS011;19554;42.652;23.364;2023-02-21T08:24:32;22.30;;;7.53;;
33190;SDS011;19554;42.652;23.364;2023-02-21T08:26:57;17.83;;;8.10;;
33190;SDS011;19554;42.652;23.364;2023-02-21T08:29:23;18.50;;;8.18;;
33190;SDS011;19554;42.652;23.364;2023-02-21T08:31:48;20.58;;;8.25;;
33190;SDS011;19554;42.652;23.364;2023-02-21T08:34:14;18.25;;;8.05;;
33190;SDS011;19554;42.652;23.364;2023-02-21T08:36:40;21.17;;;8.52;;
33190;SDS011;19554;42.652;23.364;2023-02-21T08:39:07;20.70;;;8.10;;
33190;SDS011;19554;42.652;23.364;2023-02-21T08:41:34;21.00;;;8.23;;
33190;SDS011;19554;42.652;23.364;2023-02-21T08:44:04;20.03;;;7.90;;
33190;SDS011;19554;42.652;23.364;2023-02-21T08:46:30;15.90;;;7.85;;
33190;SDS011;19554;42.652;23.364;2023-02-21T08:48:55;19.20;;;7.47;;
33190;SDS011;19554;42.652;23.364;2023-02-21T08:51:27;19.88;;;7.15;;
33190;SDS011;19554;42.652;23.364;2023-02-21T08:53:54;15.30;;;7.10;;
33190;SDS011;19554;42.652;23.364;2023-02-21T08:56:20;17.85;;;7.22;;
33190;SDS011;19554;42.652;23.364;2023-02-21T08:58:46;28.48;;;7.95;;
33190;SDS011;19554;42.652;23.364;2023-02-21T09:01:12;18.48;;;6.38;;
33190;SDS011;19554;42.652;23.364;2023-02-21T09:03:37;16.58;;;7.72;;
33190;SDS011;19554;42.652;23.364;2023-02-21T09:06:02;19.30;;;7.10;;
33190;SDS011;19554;42.652;23.364;2023-02-21T09:08:28;16.38;;;6.97;;
33190;SDS011;19554;42.652;23.364;2023-02-21T09:10:55;12.43;;;7.07;;
33190;SDS011;19554;42.652;23.364;2023-02-21T09:13:24;19.13;;;6.55;;
33190;SDS011;19554;42.652;23.364;2023-02-21T09:15:50;19.02;;;6.50;;
33190;SDS011;19554;42.652;23.364;2023-02-21T09:18:16;18.92;;;6.25;;
33190;SDS011;19554;42.652;23.364;2023-02-21T09:20:41;16.50;;;7.05;;
33190;SDS011;19554;42.652;23.364;2023-02-21T09:23:07;19.23;;;7.50;;
33190;SDS011;19554;42.652;23.364;2023-02-21T09:25:33;13.77;;;6.45;;
33190;SDS011;19554;42.652;23.364;2023-02-21T09:27:58;16.25;;;6.53;;
33190;SDS011;19554;42.652;23.364;2023-02-21T09:30:25;14.65;;;6.05;;
33190;SDS011;19554;42.652;23.364;2023-02-21T09:32:53;17.63;;;5.75;;
33190;SDS011;19554;42.652;23.364;2023-02-21T09:35:20;17.73;;;6.13;;
33190;SDS011;19554;42.652;23.364;2023-02-21T09:37:46;16.95;;;6.38;;
33190;SDS011;19554;42.652;23.364;2023-02-21T09:40:17;18.48;;;6.28;;
33190;SDS011;19554;42.652;23.364;2023-02-21T09:43:16;11.43;;;5.22;;
33190;SDS011;19554;42.652;23.364;2023-02-21T09:45:57;12.32;;;5.85;;
33190;SDS011;19554;42.652;23.364;2023-02-21T09:48:27;12.55;;;6.30;;
33190;SDS011;19554;42.652;23.364;2023-02-21T09:50:53;19.42;;;6.55;;
33190;SDS011;19554;42.652;23.364;2023-02-21T09:53:32;14.38;;;5.75;;
33190;SDS011;19554;42.652;23.364;2023-02-21T09:56:10;12.82;;;5.40;;
33190;SDS011;19554;42.652;23.364;2023-02-21T09:58:42;18.98;;;5.47;;
33190;SDS011;19554;42.652;23.364;2023-02-21T10:01:12;14.00;;;5.28;;
33190;SDS011;19554;42.652;23.364;2023-02-21T10:03:52;14.18;;;4.93;;
33190;SDS011;19554;42.652;23.364;2023-02-21T10:09:09;10.68;;;5.10;;
33190;SDS011;19554;42.652;23.364;2023-02-21T10:11:52;14.52;;;4.82;;
33190;SDS011;19554;42.652;23.364;2023-02-21T10:14:29;15.98;;;5.53;;
33190;SDS011;19554;42.652;23.364;2023-02-21T10:17:45;8.63;;;4.50;;
33190;SDS011;19554;42.652;23.364;2023-02-21T10:20:42;18.70;;;4.65;;
33190;SDS011;19554;42.652;23.364;2023-02-21T10:23:02;15.68;;;4.25;;
33190;SDS011;19554;42.652;23.364;2023-02-21T10:25:37;9.65;;;4.60;;
33190;SDS011;19554;42.652;23.364;2023-02-21T10:28:11;10.85;;;4.68;;
33190;SDS011;19554;42.652;23.364;2023-02-21T10:30:43;16.73;;;4.38;;
33190;SDS011;19554;42.652;23.364;2023-02-21T10:33:09;7.82;;;4.20;;
33190;SDS011;19554;42.652;23.364;2023-02-21T10:35:35;12.73;;;4.45;;
33190;SDS011;19554;42.652;23.364;2023-02-21T10:38:03;7.72;;;4.60;;
33190;SDS011;19554;42.652;23.364;2023-02-21T10:45:44;12.75;;;4.63;;
33190;SDS011;19554;42.652;23.364;2023-02-21T10:48:15;20.00;;;4.93;;
33190;SDS011;19554;42.652;23.364;2023-02-21T10:53:23;9.90;;;4.35;;
33190;SDS011;19554;42.652;23.364;2023-02-21T10:56:05;12.35;;;5.00;;
33190;SDS011;19554;42.652;23.364;2023-02-21T10:58:45;11.93;;;4.85;;
33190;SDS011;19554;42.652;23.364;2023-02-21T11:01:14;10.07;;;4.50;;
33190;SDS011;19554;42.652;23.364;2023-02-21T11:03:51;14.52;;;4.55;;
33190;SDS011;19554;42.652;23.364;2023-02-21T11:09:01;7.45;;;3.33;;
33190;SDS011;19554;42.652;23.364;2023-02-21T11:11:47;5.97;;;2.40;;
33190;SDS011;19554;42.652;23.364;2023-02-21T11:17:03;4.28;;;2.03;;
33190;SDS011;19554;42.652;23.364;2023-02-21T11:19:28;7.38;;;2.00;;
33190;SDS011;19554;42.652;23.364;2023-02-21T11:22:15;2.65;;;1.70;;
33190;SDS011;19554;42.652;23.364;2023-02-21T11:24:47;3.83;;;1.40;;
33190;SDS011;19554;42.652;23.364;2023-02-21T11:27:16;6.00;;;1.83;;
33190;SDS011;19554;42.652;23.364;2023-02-21T11:29:42;3.33;;;1.58;;
33190;SDS011;19554;42.652;23.364;2023-02-21T11:32:12;2.75;;;1.33;;
33190;SDS011;19554;42.652;23.364;2023-02-21T11:34:47;5.45;;;1.85;;
33190;SDS011;19554;42.652;23.364;2023-02-21T11:37:14;5.07;;;1.88;;
33190;SDS011;19554;42.652;23.364;2023-02-21T11:39:40;3.78;;;1.65;;
33190;SDS011;19554;42.652;23.364;2023-02-21T11:42:47;5.55;;;1.48;;
33190;SDS011;19554;42.652;23.364;2023-02-21T11:45:05;2.55;;;1.73;;
33190;SDS011;19554;42.652;23.364;2023-02-21T11:47:40;2.70;;;1.75;;
33190;SDS011;19554;42.652;23.364;2023-02-21T11:50:14;3.65;;;1.92;;
33190;SDS011;19554;42.652;23.364;2023-02-21T11:55:28;9.43;;;1.85;;
33190;SDS011;19554;42.652;23.364;2023-02-21T11:57:56;2.97;;;1.75;;
33190;SDS011;19554;42.652;23.364;2023-02-21T12:08:54;4.97;;;1.48;;
33190;SDS011;19554;42.652;23.364;2023-02-21T12:17:47;3.15;;;1.92;;
33190;SDS011;19554;42.652;23.364;2023-02-21T12:23:14;3.60;;;1.70;;
33190;SDS011;19554;42.652;23.364;2023-02-21T12:26:06;4.80;;;1.90;;
33190;SDS011;19554;42.652;23.364;2023-02-21T12:31:38;5.40;;;2.70;;
33190;SDS011;19554;42.652;23.364;2023-02-21T12:42:01;4.00;;;2.10;;
33190;SDS011;19554;42.652;23.364;2023-02-21T12:50:17;5.22;;;2.10;;
33190;SDS011;19554;42.652;23.364;2023-02-21T12:53:02;3.72;;;2.15;;
33190;SDS011;19554;42.652;23.364;2023-02-21T12:55:38;4.05;;;2.00;;
33190;SDS011;19554;42.652;23.364;2023-02-21T13:04:08;4.47;;;2.22;;
33190;SDS011;19554;42.652;23.364;2023-02-21T13:06:58;6.03;;;2.20;;
33190;SDS011;19554;42.652;23.364;2023-02-21T13:17:50;7.40;;;2.28;;
33190;SDS011;19554;42.652;23.364;2023-02-21T13:20:21;6.40;;;2.83;;
33190;SDS011;19554;42.652;23.364;2023-02-21T13:28:45;4.60;;;2.20;;
33190;SDS011;19554;42.652;23.364;2023-02-21T13:31:19;9.65;;;5.25;;
33190;SDS011;19554;42.652;23.364;2023-02-21T13:33:51;7.35;;;2.13;;
33190;SDS011;19554;42.652;23.364;2023-02-21T13:39:17;6.72;;;2.40;;
33190;SDS011;19554;42.652;23.364;2023-02-21T13:41:53;4.63;;;2.47;;
33190;SDS011;19554;42.652;23.364;2023-02-21T13:44:25;4.63;;;2.30;;
33190;SDS011;19554;42.652;23.364;2023-02-21T13:46:59;6.93;;;2.33;;
33190;SDS011;19554;42.652;23.364;2023-02-21T14:02:54;4.03;;;2.22;;
33190;SDS011;19554;42.652;23.364;2023-02-21T14:08:22;3.30;;;2.00;;
33190;SDS011;19554;42.652;23.364;2023-02-21T14:13:32;8.05;;;3.03;;
33190;SDS011;19554;42.652;23.364;2023-02-21T14:16:18;5.47;;;2.20;;
33190;SDS011;19554;42.652;23.364;2023-02-21T14:18:56;5.38;;;2.30;;
33190;SDS011;19554;42.652;23.364;2023-02-21T14:21:26;6.03;;;2.42;;
33190;SDS011;19554;42.652;23.364;2023-02-21T14:26:35;5.28;;;2.72;;
33190;SDS011;19554;42.652;23.364;2023-02-21T14:37:05;6.60;;;2.40;;
33190;SDS011;19554;42.652;23.364;2023-02-21T14:39:42;6.72;;;2.20;;
33190;SDS011;19554;42.652;23.364;2023-02-21T14:44:52;3.83;;;1.88;;
33190;SDS011;19554;42.652;23.364;2023-02-21T14:50:40;5.20;;;2.63;;
33190;SDS011;19554;42.652;23.364;2023-02-21T14:58:58;6.55;;;2.70;;
33190;SDS011;19554;42.652;23.364;2023-02-21T15:01:47;7.18;;;4.38;;
33190;SDS011;19554;42.652;23.364;2023-02-21T15:07:00;5.00;;;3.42;;
33190;SDS011;19554;42.652;23.364;2023-02-21T15:09:31;7.95;;;3.70;;
33190;SDS011;19554;42.652;23.364;2023-02-21T15:11:57;4.72;;;2.90;;
33190;SDS011;19554;42.652;23.364;2023-02-21T15:14:26;3.40;;;2.15;;
33190;SDS011;19554;42.652;23.364;2023-02-21T15:16:56;8.23;;;3.00;;
33190;SDS011;19554;42.652;23.364;2023-02-21T15:24:56;7.28;;;2.70;;
33190;SDS011;19554;42.652;23.364;2023-02-21T15:27:51;7.78;;;2.80;;
33190;SDS011;19554;42.652;23.364;2023-02-21T15:33:07;10.48;;;3.83;;
33190;SDS011;19554;42.652;23.364;2023-02-21T15:35:51;8.75;;;3.05;;
33190;SDS011;19554;42.652;23.364;2023-02-21T15:40:47;8.48;;;4.07;;
33190;SDS011;19554;42.652;23.364;2023-02-21T15:43:22;8.50;;;4.15;;
33190;SDS011;19554;42.652;23.364;2023-02-21T15:45:53;7.35;;;3.28;;
33190;SDS011;19554;42.652;23.364;2023-02-21T15:48:21;6.88;;;3.60;;
33190;SDS011;19554;42.652;23.364;2023-02-21T15:50:47;6.22;;;3.22;;
33190;SDS011;19554;42.652;23.364;2023-02-21T15:55:43;7.53;;;3.03;;
33190;SDS011;19554;42.652;23.364;2023-02-21T15:58:14;6.22;;;3.40;;
33190;SDS011;19554;42.652;23.364;2023-02-21T16:00:48;8.07;;;3.28;;
33190;SDS011;19554;42.652;23.364;2023-02-21T16:03:32;11.30;;;3.47;;
33190;SDS011;19554;42.652;23.364;2023-02-21T16:11:23;7.68;;;3.72;;
33190;SDS011;19554;42.652;23.364;2023-02-21T16:14:02;6.07;;;3.73;;
33190;SDS011;19554;42.652;23.364;2023-02-21T16:16:31;8.93;;;4.43;;
33190;SDS011;19554;42.652;23.364;2023-02-21T16:18:58;16.55;;;4.82;;
33190;SDS011;19554;42.652;23.364;2023-02-21T16:21:25;21.05;;;5.85;;
33190;SDS011;19554;42.652;23.364;2023-02-21T16:23:52;14.27;;;6.15;;
33190;SDS011;19554;42.652;23.364;2023-02-21T16:26:19;21.63;;;6.43;;
33190;SDS011;19554;42.652;23.364;2023-02-21T16:28:52;18.15;;;6.72;;
33190;SDS011;19554;42.652;23.364;2023-02-21T16:31:29;15.15;;;6.68;;
33190;SDS011;19554;42.652;23.364;2023-02-21T16:33:56;21.02;;;9.73;;
33190;SDS011;19554;42.652;23.364;2023-02-21T16:36:23;23.48;;;9.02;;
33190;SDS011;19554;42.652;23.364;2023-02-21T16:38:51;20.70;;;8.05;;
33190;SDS011;19554;42.652;23.364;2023-02-21T16:41:17;17.98;;;7.45;;
33190;SDS011;19554;42.652;23.364;2023-02-21T16:43:42;19.13;;;6.97;;
33190;SDS011;19554;42.652;23.364;2023-02-21T16:46:08;13.15;;;6.60;;
33190;SDS011;19554;42.652;23.364;2023-02-21T16:48:33;12.90;;;6.07;;
33190;SDS011;19554;42.652;23.364;2023-02-21T16:50:59;15.15;;;6.47;;
33190;SDS011;19554;42.652;23.364;2023-02-21T16:53:27;16.13;;;6.38;;
33190;SDS011;19554;42.652;23.364;2023-02-21T16:55:53;9.32;;;4.85;;
33190;SDS011;19554;42.652;23.364;2023-02-21T16:58:23;14.95;;;7.15;;
33190;SDS011;19554;42.652;23.364;2023-02-21T17:00:54;13.05;;;5.10;;
33190;SDS011;19554;42.652;23.364;2023-02-21T17:03:21;10.95;;;5.15;;
33190;SDS011;19554;42.652;23.364;2023-02-21T17:05:46;11.35;;;4.32;;
33190;SDS011;19554;42.652;23.364;2023-02-21T17:08:14;11.18;;;4.90;;
33190;SDS011;19554;42.652;23.364;2023-02-21T17:10:39;11.35;;;5.85;;
33190;SDS011;19554;42.652;23.364;2023-02-21T17:13:05;19.33;;;7.00;;
33190;SDS011;19554;42.652;23.364;2023-02-21T17:15:30;19.23;;;6.80;;
33190;SDS011;19554;42.652;23.364;2023-02-21T17:17:56;14.57;;;6.75;;
33190;SDS011;19554;42.652;23.364;2023-02-21T17:20:22;14.98;;;5.95;;
33190;SDS011;19554;42.652;23.364;2023-02-21T17:22:48;14.60;;;6.80;;
33190;SDS011;19554;42.652;23.364;2023-02-21T17:25:15;17.83;;;7.53;;
33190;SDS011;19554;42.652;23.364;2023-02-21T17:27:41;21.25;;;7.05;;
33190;SDS011;19554;42.652;23.364;2023-02-21T17:30:07;18.85;;;5.78;;
33190;SDS011;19554;42.652;23.364;2023-02-21T17:32:32;23.13;;;9.60;;
33190;SDS011;19554;42.652;23.364;2023-02-21T17:34:58;37.97;;;12.70;;
33190;SDS011;19554;42.652;23.364;2023-02-21T17:37:24;30.98;;;12.95;;
33190;SDS011;19554;42.652;23.364;2023-02-21T17:39:53;41.25;;;17.38;;
33190;SDS011;19554;42.652;23.364;2023-02-21T17:42:19;39.97;;;17.23;;
33190;SDS011;19554;42.652;23.364;2023-02-21T17:44:45;40.60;;;17.88;;
33190;SDS011;19554;42.652;23.364;2023-02-21T17:47:16;28.60;;;9.95;;
33190;SDS011;19554;42.652;23.364;2023-02-21T17:49:42;16.65;;;6.65;;
33190;SDS011;19554;42.652;23.364;2023-02-21T17:52:08;30.95;;;10.13;;